Time;durP1;ratioP1;P1;durP2;ratioP2;P2;SDS_P1;SDS_P2;PMS_P1;PMS_P2;Temp;Humidity;BMP_temperature;BMP_pressure;BME280_temperature;BME280_humidity;BME280_pressure;Samples;Min_cycle;Max_cycle;Signal;HPM_P1;HPM_P2
2022/03/16 00:00:12;;;;;;;;;21.50;20.25;;;;;13.00;69.64;101932.69;2450739;27;46073;-85
2022/03/16 00:01:22;;;;;;;;;22.50;21.00;;;;;13.01;69.59;101926.50;2450850;28;45262;-82
2022/03/16 00:02:33;;;;;;;;;24.75;19.50;;;;;12.99;69.60;101919.56;2450473;27;45290;-85
2022/03/16 00:03:43;;;;;;;;;16.75;16.50;;;;;13.00;69.72;101919.50;2450025;28;45244;-85
2022/03/16 00:04:55;;;;;;;;;25.00;22.00;;;;;13.00;69.68;101921.28;2449550;28;47217;-85
2022/03/16 00:06:05;;;;;;;;;24.50;23.00;;;;;12.97;69.54;101916.94;2442953;28;45374;-85
2022/03/16 00:07:17;;;;;;;;;26.25;21.50;;;;;12.98;69.45;101923.09;2450374;28;45331;-85
2022/03/16 00:08:29;;;;;;;;;24.25;23.50;;;;;12.99;69.56;101930.09;2450041;28;45220;-85
2022/03/16 00:09:39;;;;;;;;;27.25;23.00;;;;;12.99;69.63;101927.47;2450097;28;45298;-85
2022/03/16 00:10:50;;;;;;;;;26.75;21.50;;;;;12.98;69.64;101923.97;2453699;27;45243;-85
2022/03/16 00:12:00;;;;;;;;;20.25;19.00;;;;;12.98;69.80;101928.34;2450772;27;46293;-86
2022/03/16 00:13:11;;;;;;;;;25.50;23.50;;;;;12.95;69.65;101918.75;2450286;27;45365;-86
2022/03/16 00:14:21;;;;;;;;;16.50;16.50;;;;;12.98;69.89;101923.97;2450132;27;46319;-86
2022/03/16 00:15:31;;;;;;;;;26.50;24.25;;;;;12.96;69.92;101925.78;2450894;28;45224;-86
2022/03/16 00:16:42;;;;;;;;;26.00;23.75;;;;;12.97;69.53;101924.84;2450262;27;45268;-86
2022/03/16 00:17:52;;;;;;;;;22.25;18.75;;;;;12.95;69.70;101929.31;2450778;28;44545;-86
2022/03/16 00:19:03;;;;;;;;;23.00;19.50;;;;;12.97;69.49;101926.63;2450591;27;45195;-88
2022/03/16 00:20:13;;;;;;;;;22.00;20.00;;;;;12.95;69.66;101918.75;2450677;28;45439;-88
2022/03/16 00:21:24;;;;;;;;;24.50;21.50;;;;;12.96;69.75;101924.91;2451579;27;45419;-85
2022/03/16 00:22:34;;;;;;;;;25.25;22.00;;;;;12.94;69.85;101923.16;2452445;28;45411;-83
2022/03/16 00:23:44;;;;;;;;;23.75;22.25;;;;;12.95;70.11;101924.03;2451119;28;46339;-83
2022/03/16 00:24:55;;;;;;;;;20.00;19.00;;;;;12.97;69.87;101927.50;2451944;28;45366;-87
2022/03/16 00:26:05;;;;;;;;;32.00;24.25;;;;;12.98;69.59;101923.09;2452398;28;45363;-87
2022/03/16 00:27:15;;;;;;;;;26.00;23.50;;;;;12.97;70.06;101924.84;2451601;28;45544;-87
2022/03/16 00:28:26;;;;;;;;;25.50;23.25;;;;;12.99;69.77;101927.47;2451823;28;46648;-87
2022/03/16 00:29:36;;;;;;;;;24.00;21.50;;;;;12.98;69.76;101923.97;2452379;28;45313;-87
2022/03/16 00:30:46;;;;;;;;;22.75;21.00;;;;;12.99;69.74;101924.84;2451600;28;47085;-87
2022/03/16 00:31:58;;;;;;;;;28.00;24.75;;;;;12.96;69.88;101915.22;2451154;28;44875;-86
2022/03/16 00:33:08;;;;;;;;;25.50;19.00;;;;;12.98;69.83;101921.31;2454601;27;46152;-86
2022/03/16 00:34:19;;;;;;;;;24.25;22.75;;;;;12.98;69.89;101918.69;2456745;27;44594;-86
2022/03/16 00:35:30;;;;;;;;;19.00;18.50;;;;;12.99;70.18;101919.56;2452122;28;46039;-86
2022/03/16 00:36:40;;;;;;;;;18.75;15.25;;;;;13.01;69.81;101917.75;2452510;28;45157;-86
2022/03/16 00:37:51;;;;;;;;;19.25;19.25;;;;;12.99;69.74;101914.28;2452018;27;46416;-86
2022/03/16 00:39:01;;;;;;;;;25.25;22.00;;;;;13.00;70.12;101914.22;2452393;28;45237;-86
2022/03/16 00:40:12;;;;;;;;;25.00;20.00;;;;;12.99;69.83;101909.84;2452270;27;45302;-86
2022/03/16 00:41:22;;;;;;;;;22.25;20.25;;;;;13.00;69.95;101908.94;2452025;27;45435;-87
2022/03/16 00:42:32;;;;;;;;;20.50;18.50;;;;;13.00;69.57;101906.31;2452333;27;46353;-87
2022/03/16 00:43:44;;;;;;;;;22.75;19.50;;;;;13.00;69.64;101911.59;2451421;28;45279;-87
2022/03/16 00:44:54;;;;;;;;;22.00;21.00;;;;;13.00;69.89;101908.94;2451696;28;46664;-87
2022/03/16 00:46:05;;;;;;;;;25.75;23.75;;;;;13.00;69.80;101911.59;2452409;27;45172;-88
2022/03/16 00:47:15;;;;;;;;;22.75;21.50;;;;;13.01;69.79;101907.19;2451847;28;45484;-88
2022/03/16 00:48:26;;;;;;;;;25.25;21.25;;;;;13.02;69.97;101907.13;2452271;27;45495;-88
2022/03/16 00:49:36;;;;;;;;;22.75;22.25;;;;;13.01;69.58;101901.91;2451325;28;47102;-88
2022/03/16 00:50:46;;;;;;;;;23.75;18.00;;;;;13.01;69.85;101902.75;2451441;28;45204;-87
2022/03/16 00:51:58;;;;;;;;;26.75;22.50;;;;;13.03;69.68;101905.38;2451158;28;48130;-88
2022/03/16 00:53:08;;;;;;;;;26.50;23.50;;;;;13.03;69.72;101905.38;2451613;28;45228;-88
2022/03/16 00:54:19;;;;;;;;;25.00;20.50;;;;;13.04;69.85;101907.97;2451981;27;45254;-88
2022/03/16 00:55:29;;;;;;;;;25.25;23.00;;;;;13.02;69.60;101899.22;2452270;28;45259;-89
2022/03/16 00:56:40;;;;;;;;;22.50;18.50;;;;;13.04;69.58;101901.81;2452066;28;46244;-90
2022/03/16 00:57:50;;;;;;;;;23.25;21.50;;;;;13.02;69.83;101901.84;2452114;28;45224;-90
2022/03/16 00:59:00;;;;;;;;;25.75;23.25;;;;;13.04;69.84;101900.03;2451925;27;45481;-90
2022/03/16 01:00:11;;;;;;;;;24.00;18.00;;;;;13.04;69.84;101899.16;2452346;27;45251;-92
2022/03/16 01:01:22;;;;;;;;;27.00;24.00;;;;;13.02;69.68;101896.56;2450753;28;47136;-91
2022/03/16 01:02:32;;;;;;;;;24.50;23.25;;;;;13.03;69.43;101889.53;2451868;28;45269;-93
2022/03/16 01:03:43;;;;;;;;;30.75;27.75;;;;;13.04;69.63;101902.69;2452578;27;46485;-94
2022/03/16 01:04:54;;;;;;;;;21.25;19.75;;;;;13.04;69.91;101892.13;2452043;28;45387;-95
2022/03/16 01:06:04;;;;;;;;;25.00;18.75;;;;;13.04;69.74;101892.13;2445194;28;46905;-93
2022/03/16 01:07:17;;;;;;;;;22.25;18.50;;;;;13.04;69.62;101891.25;2459471;28;44740;-96
2022/03/16 01:08:28;;;;;;;;;21.00;21.00;;;;;13.05;69.71;101887.72;2439564;28;45604;-90
2022/03/16 01:09:38;;;;;;;;;23.00;21.00;;;;;13.04;69.49;101888.59;2444884;28;45244;-89
2022/03/16 01:10:49;;;;;;;;;20.00;18.25;;;;;13.04;69.57;101886.84;2450976;28;47797;-90
2022/03/16 01:11:59;;;;;;;;;25.00;19.50;;;;;13.04;69.69;101880.69;2444148;28;44620;-89
2022/03/16 01:13:10;;;;;;;;;19.00;17.50;;;;;13.04;69.54;101880.69;2451011;28;46429;-89
2022/03/16 01:14:20;;;;;;;;;22.00;19.00;;;;;13.04;69.72;101883.34;2452146;27;45233;-90
2022/03/16 01:15:31;;;;;;;;;19.00;18.50;;;;;13.03;69.38;101882.50;2453186;28;45214;-95
2022/03/16 01:16:41;;;;;;;;;23.75;19.75;;;;;13.05;69.39;101882.44;2452250;28;45272;-94
2022/03/16 01:17:52;;;;;;;;;26.50;22.00;;;;;13.03;69.49;101879.84;2446534;28;47080;-95
2022/03/16 01:19:02;;;;;;;;;27.75;23.25;;;;;13.05;69.62;101874.53;2455678;28;45234;-96
2022/03/16 01:20:13;;;;;;;;;23.75;23.25;;;;;13.05;69.69;101875.41;2451711;28;46963;-95
2022/03/16 01:21:23;;;;;;;;;24.00;21.50;;;;;13.04;69.57;101865.72;2444820;28;45173;-95
2022/03/16 01:22:34;;;;;;;;;20.50;20.50;;;;;13.04;69.54;101870.13;2451289;28;47314;-88
2022/03/16 01:23:44;;;;;;;;;18.75;17.00;;;;;13.03;69.48;101863.13;2451285;28;45474;-87
2022/03/16 01:24:54;;;;;;;;;18.75;17.75;;;;;13.05;69.69;101872.75;2444135;28;46601;-88
2022/03/16 01:26:05;;;;;;;;;27.75;20.00;;;;;13.05;69.17;101866.59;2451010;28;44731;-88
2022/03/16 01:27:16;;;;;;;;;24.00;20.50;;;;;13.05;69.54;101867.47;2450986;28;46322;-88
2022/03/16 01:28:26;;;;;;;;;24.00;19.25;;;;;13.05;69.59;101863.97;2444102;28;44697;-91
2022/03/16 01:29:36;;;;;;;;;16.50;14.25;;;;;13.06;69.74;101865.72;2444217;28;47441;-91
2022/03/16 01:30:47;;;;;;;;;24.50;20.75;;;;;13.05;69.53;101864.84;2451206;28;45383;-91
2022/03/16 01:31:57;;;;;;;;;19.25;19.00;;;;;13.06;69.39;101863.06;2443722;28;46491;-81
2022/03/16 01:33:08;;;;;;;;;22.00;19.75;;;;;13.08;69.67;101860.38;2449959;28;45306;-82
2022/03/16 01:34:19;;;;;;;;;23.25;18.50;;;;;13.05;69.38;101854.28;2451557;27;45336;-82
2022/03/16 01:35:29;;;;;;;;;23.50;19.25;;;;;13.06;69.58;101857.78;2451913;27;45163;-82
2022/03/16 01:36:39;;;;;;;;;15.75;12.50;;;;;13.05;69.31;101856.03;2451752;27;46506;-82
2022/03/16 01:37:50;;;;;;;;;19.75;17.75;;;;;13.04;69.48;101855.16;2451876;27;45226;-83
2022/03/16 01:39:00;;;;;;;;;26.25;22.00;;;;;13.06;69.48;101857.78;2451508;28;45415;-82
2022/03/16 01:40:11;;;;;;;;;22.50;20.50;;;;;13.05;69.96;101856.91;2452060;28;45281;-88
2022/03/16 01:41:21;;;;;;;;;23.75;23.00;;;;;13.05;69.45;101854.28;2451534;28;45422;-88
2022/03/16 01:42:33;;;;;;;;;17.25;13.25;;;;;13.04;69.31;101847.25;2451941;28;45226;-88
2022/03/16 01:43:43;;;;;;;;;24.00;20.50;;;;;13.05;69.29;101851.63;2450701;28;47316;-87
2022/03/16 01:44:57;;;;;;;;;18.00;17.75;;;;;13.06;69.14;101857.78;2444075;28;45524;-87
2022/03/16 01:46:07;;;;;;;;;23.50;21.50;;;;;13.04;69.26;101857.81;2450967;28;47352;-87
2022/03/16 01:47:20;;;;;;;;;24.50;19.50;;;;;13.03;69.37;101858.75;2443692;28;45447;-93
2022/03/16 01:48:30;;;;;;;;;23.00;19.50;;;;;13.03;69.26;101861.38;2444090;28;47105;-88
2022/03/16 01:49:41;;;;;;;;;22.00;21.50;;;;;13.04;69.29;101864.84;2450946;28;44603;-87
2022/03/16 01:50:53;;;;;;;;;18.50;17.50;;;;;13.04;69.60;101862.22;2451325;28;46150;-88
2022/03/16 01:52:04;;;;;;;;;25.75;21.75;;;;;13.02;69.11;101856.13;2451095;28;45428;-87
2022/03/16 01:53:16;;;;;;;;;22.00;20.75;;;;;13.03;69.18;101858.75;2450854;28;45602;-87
2022/03/16 01:54:26;;;;;;;;;22.50;20.25;;;;;13.01;69.24;101855.25;2451924;28;45223;-88
2022/03/16 01:55:39;;;;;;;;;20.75;17.50;;;;;13.00;69.01;101857.94;2451598;27;46367;-88
2022/03/16 01:56:49;;;;;;;;;24.50;19.50;;;;;13.02;69.11;101862.28;2451762;27;45173;-87
2022/03/16 01:58:00;;;;;;;;;22.00;17.50;;;;;13.01;69.03;101865.81;2450751;28;47652;-85
2022/03/16 01:59:11;;;;;;;;;17.75;16.00;;;;;13.00;69.34;101860.56;2451441;28;45245;-85
2022/03/16 02:00:22;;;;;;;;;19.00;16.50;;;;;12.99;68.86;101870.25;2451284;28;45220;-86
2022/03/16 02:01:32;;;;;;;;;21.75;19.00;;;;;12.99;69.10;101861.50;2451397;28;44791;-85
2022/03/16 02:02:43;;;;;;;;;19.25;16.25;;;;;12.99;69.17;101859.69;2451538;27;45251;-85
2022/03/16 02:03:54;;;;;;;;;19.25;17.25;;;;;12.98;69.01;101863.25;2451774;27;45334;-85
2022/03/16 02:05:05;;;;;;;;;20.75;18.50;;;;;12.97;69.38;101853.59;2451385;28;45352;-85
2022/03/16 02:06:15;;;;;;;;;23.50;20.25;;;;;12.98;69.56;101851.84;2450770;28;44626;-85
2022/03/16 02:07:26;;;;;;;;;17.50;15.50;;;;;12.97;69.45;101861.50;2450995;28;45488;-85
2022/03/16 02:08:36;;;;;;;;;24.50;22.00;;;;;12.96;68.65;101853.66;2451454;28;45415;-86
2022/03/16 02:09:48;;;;;;;;;27.50;23.00;;;;;12.95;69.14;101860.69;2451021;28;45271;-86
2022/03/16 02:10:58;;;;;;;;;21.75;19.25;;;;;12.93;69.24;101851.94;2455846;27;44712;-85
2022/03/16 02:12:12;;;;;;;;;22.75;18.00;;;;;12.93;68.91;101854.59;2451500;28;45302;-86
2022/03/16 02:13:24;;;;;;;;;19.00;18.00;;;;;12.92;69.25;101859.00;2451405;27;44716;-86
2022/03/16 02:14:35;;;;;;;;;18.00;18.00;;;;;12.92;69.06;101858.13;2451513;28;45439;-86
2022/03/16 02:15:45;;;;;;;;;17.00;16.75;;;;;12.90;69.04;101860.81;2451487;28;45325;-86
2022/03/16 02:16:58;;;;;;;;;21.25;18.00;;;;;12.92;69.29;101858.13;2451241;28;45321;-86
2022/03/16 02:18:09;;;;;;;;;23.50;23.00;;;;;12.90;69.16;101858.16;2451467;28;44636;-86
2022/03/16 02:19:19;;;;;;;;;16.50;15.00;;;;;12.89;69.05;101856.41;2451553;27;45349;-86
2022/03/16 02:20:30;;;;;;;;;23.25;22.25;;;;;12.89;68.85;101860.84;2450827;28;45243;-93
2022/03/16 02:21:44;;;;;;;;;24.25;19.50;;;;;12.88;69.43;101857.34;2443754;28;47747;-90
2022/03/16 02:23:05;;;;;;;;;25.00;18.00;;;;;12.88;69.06;101859.97;2450631;28;45509;-89
2022/03/16 02:24:15;;;;;;;;;22.25;18.25;;;;;12.85;69.05;101846.84;2450803;28;46533;-86
2022/03/16 02:25:27;;;;;;;;;25.50;21.50;;;;;12.86;69.08;101858.28;2451475;27;45506;-86
2022/03/16 02:26:38;;;;;;;;;22.25;22.00;;;;;12.81;69.10;101854.00;2451314;27;46331;-86
2022/03/16 02:27:49;;;;;;;;;17.50;16.25;;;;;12.81;69.04;101853.13;2451644;27;44650;-86
2022/03/16 02:28:59;;;;;;;;;21.50;18.25;;;;;12.80;68.88;101857.53;2450967;27;46262;-88
2022/03/16 02:30:11;;;;;;;;;22.75;19.25;;;;;12.80;69.14;101846.09;2451569;27;45424;-89
2022/03/16 02:31:21;;;;;;;;;23.00;17.75;;;;;12.80;68.96;101859.28;2451325;27;45335;-88
2022/03/16 02:32:31;;;;;;;;;22.75;18.75;;;;;12.79;69.11;101854.94;2450912;28;45431;-87
2022/03/16 02:33:42;;;;;;;;;21.00;20.75;;;;;12.78;69.03;101854.06;2451514;27;45297;-87
2022/03/16 02:34:52;;;;;;;;;21.00;17.50;;;;;12.77;68.93;101848.81;2451379;27;45176;-88
2022/03/16 02:36:03;;;;;;;;;25.00;19.25;;;;;12.76;68.57;101847.97;2451251;27;45330;-87
2022/03/16 02:37:13;;;;;;;;;22.25;18.50;;;;;12.73;69.22;101844.53;2450694;28;45194;-87
2022/03/16 02:38:23;;;;;;;;;24.00;21.25;;;;;12.71;68.83;101847.22;2443454;28;46924;-88
2022/03/16 02:39:34;;;;;;;;;20.75;19.75;;;;;12.70;68.73;101840.19;2450914;28;45499;-88
2022/03/16 02:40:45;;;;;;;;;22.50;20.25;;;;;12.68;68.69;101837.59;2450226;28;47424;-87
2022/03/16 02:41:55;;;;;;;;;22.75;22.00;;;;;12.66;68.85;101835.91;2450951;28;45474;-88
2022/03/16 02:43:05;;;;;;;;;16.75;16.75;;;;;12.65;68.55;101839.41;2450550;28;47783;-88
2022/03/16 02:44:16;;;;;;;;;21.50;21.00;;;;;12.63;68.50;101839.47;2450432;28;44774;-88
2022/03/16 02:45:26;;;;;;;;;22.25;21.25;;;;;12.62;68.95;101836.88;2451179;28;45258;-88
2022/03/16 02:46:37;;;;;;;;;20.00;18.25;;;;;12.60;68.62;101843.06;2450701;28;45210;-88
2022/03/16 02:47:47;;;;;;;;;29.00;20.75;;;;;12.58;68.85;101839.59;2451218;28;45337;-88
2022/03/16 02:48:58;;;;;;;;;21.75;18.50;;;;;12.57;68.95;101837.84;2451165;27;45365;-88
2022/03/16 02:50:09;;;;;;;;;21.50;21.25;;;;;12.54;68.66;101832.66;2450332;28;47280;-88
2022/03/16 02:51:19;;;;;;;;;22.50;17.50;;;;;12.53;68.66;101832.69;2451039;28;44622;-85
2022/03/16 02:52:29;;;;;;;;;27.00;18.25;;;;;12.50;68.40;101836.25;2450905;28;46319;-84
2022/03/16 02:53:40;;;;;;;;;22.50;21.25;;;;;12.51;68.69;101839.75;2451189;28;45148;-88
2022/03/16 02:54:51;;;;;;;;;19.00;17.50;;;;;12.49;68.67;101837.16;2451113;27;46449;-87
2022/03/16 02:56:01;;;;;;;;;22.25;18.50;;;;;12.47;68.56;101834.56;2450969;28;45152;-87
2022/03/16 02:57:15;;;;;;;;;18.00;16.00;;;;;12.45;68.57;101832.84;2451226;28;46385;-87
2022/03/16 02:58:26;;;;;;;;;23.25;22.75;;;;;12.42;68.62;101822.41;2451314;27;45259;-84
2022/03/16 02:59:36;;;;;;;;;28.00;20.00;;;;;12.40;68.82;101832.97;2451265;27;46176;-83
2022/03/16 03:00:47;;;;;;;;;22.00;19.75;;;;;12.39;68.50;101828.59;2450500;28;45257;-85
2022/03/16 03:01:57;;;;;;;;;21.75;20.00;;;;;12.40;68.57;101826.81;2450262;28;46250;-85
2022/03/16 03:03:07;;;;;;;;;27.25;21.00;;;;;12.35;68.88;101827.78;2451372;28;45271;-85
2022/03/16 03:04:18;;;;;;;;;23.75;20.25;;;;;12.36;68.69;101836.59;2451058;28;45377;-84
2022/03/16 03:05:28;;;;;;;;;25.25;22.25;;;;;12.33;68.50;101832.25;2451110;28;45231;-85
2022/03/16 03:06:38;;;;;;;;;25.50;22.75;;;;;12.33;69.01;101831.38;2450911;28;46213;-84
2022/03/16 03:07:49;;;;;;;;;23.50;22.25;;;;;12.30;69.10;101832.31;2451415;27;44631;-90
2022/03/16 03:08:59;;;;;;;;;20.00;18.00;;;;;12.29;69.02;101841.13;2451164;28;45349;-91
2022/03/16 03:10:09;;;;;;;;;26.25;22.00;;;;;12.30;68.87;101834.94;2451344;28;45424;-91
2022/03/16 03:11:20;;;;;;;;;28.25;22.25;;;;;12.27;68.92;101832.41;2450163;28;46878;-92
2022/03/16 03:12:35;;;;;;;;;30.25;24.00;;;;;12.27;69.10;101835.03;2443795;28;45189;-93
2022/03/16 03:13:45;;;;;;;;;31.00;25.50;;;;;12.24;69.30;101835.97;2436040;28;47945;-87
2022/03/16 03:14:55;;;;;;;;;25.00;24.00;;;;;12.24;69.08;101829.81;2450509;28;45181;-85
2022/03/16 03:16:06;;;;;;;;;27.50;24.25;;;;;12.24;69.20;101832.47;2450803;28;45337;-86
2022/03/16 03:17:16;;;;;;;;;28.00;24.50;;;;;12.23;69.32;101839.50;2450915;28;45376;-85
2022/03/16 03:18:26;;;;;;;;;27.50;23.75;;;;;12.23;69.34;101833.34;2450888;28;45327;-85
2022/03/16 03:19:37;;;;;;;;;24.50;22.75;;;;;12.23;69.57;101830.72;2451382;27;45270;-85
2022/03/16 03:20:47;;;;;;;;;28.00;25.00;;;;;12.22;69.40;101832.47;2450862;28;45498;-85
2022/03/16 03:21:58;;;;;;;;;30.25;25.00;;;;;12.21;69.45;101832.50;2451092;28;45292;-86
2022/03/16 03:23:08;;;;;;;;;30.00;24.75;;;;;12.21;69.25;101837.78;2450802;27;45380;-85
2022/03/16 03:24:19;;;;;;;;;27.25;25.25;;;;;12.20;69.17;101833.44;2451269;28;45249;-85
2022/03/16 03:25:29;;;;;;;;;27.25;24.25;;;;;12.22;69.26;101842.16;2450827;28;45386;-85
2022/03/16 03:26:39;;;;;;;;;25.00;22.75;;;;;12.20;69.28;101834.28;2451112;28;44632;-85
2022/03/16 03:27:50;;;;;;;;;26.50;23.75;;;;;12.18;69.52;101832.56;2450911;28;45254;-85
2022/03/16 03:29:00;;;;;;;;;29.25;25.75;;;;;12.19;69.40;101829.94;2451391;28;45219;-85
2022/03/16 03:30:11;;;;;;;;;31.00;25.00;;;;;12.18;69.43;101827.31;2450860;28;45428;-85
2022/03/16 03:31:21;;;;;;;;;35.00;29.25;;;;;12.16;69.42;101830.00;2450388;28;45324;-85
2022/03/16 03:32:32;;;;;;;;;31.25;28.50;;;;;12.16;69.34;101830.00;2442882;28;47217;-85
2022/03/16 03:33:42;;;;;;;;;29.50;28.00;;;;;12.16;69.17;101830.00;2450595;28;45264;-86
2022/03/16 03:34:55;;;;;;;;;35.00;31.50;;;;;12.14;69.38;101827.41;2450794;27;45575;-84
2022/03/16 03:36:05;;;;;;;;;40.75;34.50;;;;;12.13;69.25;101825.66;2451172;28;45230;-81
2022/03/16 03:37:18;;;;;;;;;36.75;30.75;;;;;12.14;69.26;101832.66;2451084;27;46274;-80
2022/03/16 03:38:28;;;;;;;;;36.00;26.75;;;;;12.12;69.16;101833.56;2450960;27;45409;-80
2022/03/16 03:39:39;;;;;;;;;31.75;30.50;;;;;12.11;69.13;101835.34;2450897;28;45421;-80
2022/03/16 03:40:49;;;;;;;;;35.75;32.00;;;;;12.09;69.21;101841.53;2449929;28;45217;-80
2022/03/16 03:41:59;;;;;;;;;42.00;34.25;;;;;12.07;69.23;101836.31;2449822;28;46721;-81
2022/03/16 03:43:10;;;;;;;;;35.25;30.75;;;;;12.06;69.01;101833.69;2450996;27;44536;-81
2022/03/16 03:44:20;;;;;;;;;36.00;30.75;;;;;12.05;69.08;101838.06;2450763;28;46334;-85
2022/03/16 03:45:31;;;;;;;;;31.50;29.00;;;;;12.04;69.15;101833.72;2450977;28;44567;-87
2022/03/16 03:46:42;;;;;;;;;49.75;37.00;;;;;12.03;69.25;101834.63;2450631;27;45498;-86
2022/03/16 03:47:52;;;;;;;;;38.25;35.25;;;;;12.03;69.00;101840.75;2451390;28;45172;-95
2022/03/16 03:49:02;;;;;;;;;50.00;38.00;;;;;12.02;69.05;101838.16;2452526;28;47086;-95
2022/03/16 03:50:13;;;;;;;;;48.25;39.50;;;;;12.01;69.26;101841.69;2446413;28;45204;-96
2022/03/16 03:51:23;;;;;;;;;43.75;36.75;;;;;11.98;68.79;101837.34;2451695;28;46920;-95
2022/03/16 03:52:34;;;;;;;;;48.50;37.00;;;;;11.98;69.06;101837.34;2444150;28;44705;-95
2022/03/16 03:53:44;;;;;;;;;46.75;38.50;;;;;11.97;69.14;101840.03;2444016;28;48547;-95
2022/03/16 03:54:54;;;;;;;;;48.25;39.25;;;;;11.98;69.17;101847.03;2451007;28;45290;-95
2022/03/16 03:56:05;;;;;;;;;47.00;36.75;;;;;11.93;69.06;101834.81;2443849;28;47119;-96
2022/03/16 03:57:15;;;;;;;;;48.25;38.50;;;;;11.95;69.11;101836.56;2445562;28;44706;-95
2022/03/16 03:58:25;;;;;;;;;48.00;39.00;;;;;11.92;69.35;101838.38;2446048;28;47035;-96
2022/03/16 03:59:36;;;;;;;;;46.00;38.00;;;;;11.90;69.36;101834.88;2450288;28;45292;-95
2022/03/16 04:00:49;;;;;;;;;50.50;40.00;;;;;11.88;69.13;101831.41;2450914;28;47130;-95
2022/03/16 04:01:59;;;;;;;;;22.75;20.00;;;;;11.89;69.19;101832.28;2457767;28;45271;-95
2022/03/16 04:03:10;;;;;;;;;49.50;39.00;;;;;11.87;69.31;101832.31;2449889;28;48401;-95
2022/03/16 04:04:21;;;;;;;;;50.00;41.00;;;;;11.90;69.19;101840.16;2458310;28;44568;-96
2022/03/16 04:05:31;;;;;;;;;51.00;39.50;;;;;11.90;69.36;101840.16;2457134;28;47031;-96
2022/03/16 04:06:42;;;;;;;;;52.00;41.75;;;;;11.85;69.16;101822.72;2448160;28;45282;-95
2022/03/16 04:07:53;;;;;;;;;48.50;40.00;;;;;11.88;69.04;101833.16;2448663;28;48133;-96
2022/03/16 04:09:04;;;;;;;;;50.00;39.75;;;;;11.84;69.08;101829.75;2445764;28;45233;-94
2022/03/16 04:10:14;;;;;;;;;52.00;43.00;;;;;11.86;69.23;101824.44;2446443;27;47869;-95
2022/03/16 04:11:25;;;;;;;;;46.75;38.50;;;;;11.85;69.00;101836.75;2446591;28;44683;-96
2022/03/16 04:12:36;;;;;;;;;49.75;40.00;;;;;11.84;69.19;101821.84;2445600;28;47214;-95
2022/03/16 04:13:46;;;;;;;;;47.75;39.25;;;;;11.82;69.41;101827.16;2448879;28;45447;-93
2022/03/16 04:14:56;;;;;;;;;51.75;38.50;;;;;11.80;69.17;101815.75;2444634;28;47199;-87
2022/03/16 04:16:07;;;;;;;;;49.50;39.50;;;;;11.78;69.26;101820.19;2452018;28;45320;-84
2022/03/16 04:17:17;;;;;;;;;47.25;39.25;;;;;11.79;69.35;101821.06;2451943;28;45406;-79
2022/03/16 04:18:27;;;;;;;;;45.75;37.25;;;;;11.77;69.22;101813.22;2452517;27;45511;-79
2022/03/16 04:19:38;;;;;;;;;51.50;40.00;;;;;11.78;69.17;101816.69;2452408;28;45353;-81
2022/03/16 04:20:48;;;;;;;;;51.25;40.50;;;;;11.75;69.04;101804.47;2452416;28;45250;-81
2022/03/16 04:21:58;;;;;;;;;46.75;37.25;;;;;11.74;69.23;101808.00;2452364;27;45274;-82
2022/03/16 04:23:09;;;;;;;;;46.00;38.50;;;;;11.74;69.21;101808.00;2452285;27;45290;-83
2022/03/16 04:24:19;;;;;;;;;43.50;36.75;;;;;11.72;69.23;101804.53;2452328;27;46675;-83
2022/03/16 04:25:29;;;;;;;;;46.75;38.25;;;;;11.70;69.09;101811.59;2452044;27;44567;-85
2022/03/16 04:26:40;;;;;;;;;48.00;37.25;;;;;11.70;69.15;101806.34;2451832;27;45569;-85
2022/03/16 04:27:50;;;;;;;;;44.00;36.00;;;;;11.68;69.05;101806.34;2452663;27;45223;-85
2022/03/16 04:29:01;;;;;;;;;48.50;38.00;;;;;11.69;69.31;101800.19;2452155;27;45350;-85
2022/03/16 04:30:12;;;;;;;;;50.75;39.75;;;;;11.68;69.19;101803.72;2452466;28;45295;-85
2022/03/16 04:31:22;;;;;;;;;40.25;34.00;;;;;11.67;69.50;101801.13;2452271;28;45471;-85
2022/03/16 04:32:33;;;;;;;;;42.00;34.00;;;;;11.67;69.29;101803.75;2452291;27;45358;-84
2022/03/16 04:33:43;;;;;;;;;39.25;33.50;;;;;11.66;69.04;101804.66;2452136;28;45221;-86
2022/03/16 04:34:53;;;;;;;;;45.75;36.50;;;;;11.63;69.05;101810.84;2451753;28;45150;-92
2022/03/16 04:36:05;;;;;;;;;41.00;33.25;;;;;11.64;69.11;101816.97;2451769;28;47157;-92
2022/03/16 04:37:16;;;;;;;;;40.75;34.50;;;;;11.61;69.21;101806.50;2452026;28;45379;-87
2022/03/16 04:38:26;;;;;;;;;41.25;33.75;;;;;11.61;69.27;101810.00;2452103;28;45448;-87
2022/03/16 04:39:37;;;;;;;;;41.00;35.25;;;;;11.59;69.22;101798.66;2452386;27;45370;-87
2022/03/16 04:40:47;;;;;;;;;36.75;31.50;;;;;11.61;69.20;101796.84;2451992;28;45272;-88
2022/03/16 04:41:58;;;;;;;;;40.25;34.00;;;;;11.59;69.33;101801.28;2452367;27;45390;-88
2022/03/16 04:43:09;;;;;;;;;47.75;34.50;;;;;11.57;69.12;101792.53;2452303;27;46296;-88
2022/03/16 04:44:19;;;;;;;;;39.75;33.00;;;;;11.56;69.19;101789.03;2451483;28;44836;-90
2022/03/16 04:45:30;;;;;;;;;41.00;34.00;;;;;11.55;69.16;101789.97;2444267;28;48060;-89
2022/03/16 04:46:40;;;;;;;;;41.50;36.00;;;;;11.55;69.27;101794.34;2451609;28;44719;-89
2022/03/16 04:47:51;;;;;;;;;46.00;35.25;;;;;11.53;69.25;101794.34;2451477;28;47524;-89
2022/03/16 04:49:01;;;;;;;;;39.25;34.00;;;;;11.53;69.28;101793.50;2451532;28;45176;-89
2022/03/16 04:50:12;;;;;;;;;46.50;36.00;;;;;11.53;69.46;101804.88;2452079;27;45581;-87
2022/03/16 04:51:22;;;;;;;;;46.00;37.50;;;;;11.51;69.44;101798.78;2452464;27;45211;-87
2022/03/16 04:52:41;;;;;;;;;39.50;35.25;;;;;11.50;69.46;101796.19;2452087;28;46102;-87
2022/03/16 04:53:51;;;;;;;;;41.75;35.75;;;;;11.51;69.08;101801.44;2442564;28;45213;-86
2022/03/16 04:55:02;;;;;;;;;43.50;35.25;;;;;11.50;69.16;101797.06;2447961;28;47104;-86
2022/03/16 04:56:12;;;;;;;;;42.75;35.00;;;;;11.50;69.51;101804.09;2451541;28;45174;-89
2022/03/16 04:57:23;;;;;;;;;45.00;36.50;;;;;11.51;69.19;101811.13;2444390;28;48109;-89
2022/03/16 04:58:33;;;;;;;;;44.50;34.75;;;;;11.48;69.28;101806.78;2451691;28;45189;-88
2022/03/16 04:59:43;;;;;;;;;37.25;33.25;;;;;11.48;69.64;101809.41;2452057;28;46359;-89
2022/03/16 05:00:54;;;;;;;;;42.25;35.75;;;;;11.47;69.78;101808.53;2452204;27;45168;-87
2022/03/16 05:02:05;;;;;;;;;45.25;36.75;;;;;11.48;69.52;101812.03;2451626;28;45432;-88
2022/03/16 05:03:15;;;;;;;;;36.00;32.00;;;;;11.48;69.56;101818.16;2452231;28;45236;-91
2022/03/16 05:04:25;;;;;;;;;44.00;34.25;;;;;11.47;69.28;101811.16;2451299;28;47200;-91
2022/03/16 05:05:36;;;;;;;;;44.00;36.00;;;;;11.48;69.21;101817.31;2444442;28;45264;-91
2022/03/16 05:06:46;;;;;;;;;41.50;34.50;;;;;11.47;69.50;101808.53;2443843;28;47620;-91
2022/03/16 05:07:57;;;;;;;;;41.00;33.75;;;;;11.48;69.53;101807.63;2451779;28;45520;-91
2022/03/16 05:09:07;;;;;;;;;40.25;32.75;;;;;11.48;69.42;101802.34;2451353;28;47283;-91
2022/03/16 05:10:17;;;;;;;;;40.75;33.00;;;;;11.48;69.46;101807.63;2443835;27;45198;-89
2022/03/16 05:11:28;;;;;;;;;36.25;33.25;;;;;11.45;69.64;101802.44;2450950;28;47106;-89
2022/03/16 05:12:44;;;;;;;;;32.75;30.00;;;;;11.48;69.49;101806.78;2451770;28;45333;-90
2022/03/16 05:13:56;;;;;;;;;39.75;32.25;;;;;11.46;69.66;101798.88;2451622;27;45408;-90
2022/03/16 05:15:08;;;;;;;;;33.25;30.50;;;;;11.47;69.82;101805.91;2452098;28;45256;-88
2022/03/16 05:16:18;;;;;;;;;34.25;29.75;;;;;11.45;69.62;101798.94;2450946;28;46462;-88
2022/03/16 05:17:29;;;;;;;;;31.75;30.00;;;;;11.44;69.64;101798.06;2451537;28;44637;-89
2022/03/16 05:18:40;;;;;;;;;34.25;29.50;;;;;11.46;69.41;101793.63;2451499;28;45379;-89
2022/03/16 05:19:51;;;;;;;;;32.75;30.25;;;;;11.45;69.86;101791.91;2451822;27;45232;-89
2022/03/16 05:21:08;;;;;;;;;34.75;30.50;;;;;11.47;69.65;101792.75;2451275;28;46331;-90